Terminal Aerodrome Forecast
Issued by NWS

Current Version | Previous Version | Text Only | Print | Product List | Glossary On
Versions: 1 2 3 4 5 6 7 8 9 10 11 12 13 14 15 16 17 18 19 20 21 22 23 24 25 26 27 28 29 30 31 32 33 34
000 FTUS41 KOKX 302047 AAB TAFHPN TAF AMD KHPN 302047Z 3021/0118 VRB05KT P6SM SCT060 SCT250 FM302200 21007KT P6SM SCT060 SCT250 FM010100 VRB04KT P6SM FEW050 SCT250 FM010900 VRB04KT P6SM SCT030 BKN050 FM011300 15007KT P6SM BKN040 BKN100 PROB30 0113/0117 6SM -SHRA BKN030 AMD NOT SKED=

USA.gov is the U.S. government's official web portal to all federal, state and local government web resources and services.